Time;durP1;ratioP1;P1;durP2;ratioP2;P2;SDS_P1;SDS_P2;PMS_P1;PMS_P2;Temp;Humidity;BMP_temperature;BMP_pressure;BME280_temperature;BME280_humidity;BME280_pressure;Samples;Min_cycle;Max_cycle;Signal;HPM_P1;HPM_P2
2024/03/25 00:02:10;;;;;;;25.23;4.10;;;7.10;99.90;;;;;;5034805;28;20076;-63
2024/03/25 00:04:36;;;;;;;16.42;2.78;;;7.10;99.90;;;;;;5033514;28;20045;-62
2024/03/25 00:07:02;;;;;;;13.32;3.10;;;7.20;99.90;;;;;;5033958;28;20469;-62
2024/03/25 00:09:28;;;;;;;17.45;3.17;;;7.10;99.90;;;;;;5035437;28;20507;-62
2024/03/25 00:11:54;;;;;;;15.05;2.83;;;7.10;99.90;;;;;;5033169;28;20037;-62
2024/03/25 00:14:23;;;;;;;19.17;3.75;;;7.10;99.90;;;;;;5035431;28;20514;-62
2024/03/25 00:16:49;;;;;;;15.57;3.03;;;7.00;99.90;;;;;;5036241;28;20044;-62
2024/03/25 00:19:16;;;;;;;14.13;2.50;;;7.00;99.90;;;;;;5038836;28;20048;-63
2024/03/25 00:21:42;;;;;;;13.27;3.38;;;7.00;99.90;;;;;;5038265;28;20438;-62
2024/03/25 00:24:08;;;;;;;16.35;3.20;;;7.00;99.90;;;;;;5036944;28;20083;-62
2024/03/25 00:26:34;;;;;;;18.85;2.55;;;6.90;99.90;;;;;;5033119;28;20405;-62
2024/03/25 00:28:59;;;;;;;14.70;2.58;;;6.90;99.90;;;;;;5038717;28;20091;-62
2024/03/25 00:31:25;;;;;;;10.65;2.28;;;6.90;99.90;;;;;;5036591;28;20103;-62
2024/03/25 00:33:51;;;;;;;16.48;2.90;;;6.90;99.90;;;;;;5034340;28;20451;-62
2024/03/25 00:36:17;;;;;;;11.85;2.33;;;7.00;99.90;;;;;;5036916;28;20044;-62
2024/03/25 00:38:43;;;;;;;12.00;2.58;;;7.00;99.90;;;;;;5036848;28;20110;-62
2024/03/25 00:41:09;;;;;;;11.50;2.33;;;7.00;99.90;;;;;;5036357;28;20041;-62
2024/03/25 00:43:35;;;;;;;17.55;3.33;;;7.00;99.90;;;;;;5043536;28;20041;-62
2024/03/25 00:46:01;;;;;;;12.80;2.95;;;7.00;99.90;;;;;;5042169;28;20033;-62
2024/03/25 00:48:26;;;;;;;12.25;3.20;;;7.00;99.90;;;;;;5040704;28;20500;-63
2024/03/25 00:50:52;;;;;;;18.63;2.90;;;7.00;99.90;;;;;;5038284;28;20045;-62
2024/03/25 00:53:18;;;;;;;18.92;2.95;;;7.10;99.90;;;;;;5041011;28;20044;-62
2024/03/25 00:55:45;;;;;;;17.05;3.60;;;7.10;99.90;;;;;;5043021;28;20497;-62
2024/03/25 00:58:10;;;;;;;20.50;2.85;;;7.10;99.90;;;;;;5041260;28;20057;-62
2024/03/25 01:00:36;;;;;;;13.07;2.88;;;7.10;99.90;;;;;;5036657;28;20431;-63
2024/03/25 01:03:02;;;;;;;16.38;2.75;;;7.10;99.90;;;;;;5043535;28;20068;-62
2024/03/25 01:05:28;;;;;;;16.65;4.13;;;7.10;99.90;;;;;;5039823;28;20041;-63
2024/03/25 01:07:53;;;;;;;15.70;2.97;;;7.10;99.90;;;;;;5040080;28;20116;-62
2024/03/25 01:10:19;;;;;;;24.80;4.00;;;7.10;99.90;;;;;;5047178;28;20047;-62
2024/03/25 01:12:45;;;;;;;26.48;5.07;;;7.10;99.90;;;;;;5039063;28;20443;-62
2024/03/25 01:15:11;;;;;;;18.05;3.47;;;7.10;99.90;;;;;;5036827;28;20088;-63
2024/03/25 01:17:37;;;;;;;15.15;3.22;;;7.10;99.90;;;;;;5037336;28;20049;-62
2024/03/25 01:20:06;;;;;;;14.38;3.20;;;7.10;99.90;;;;;;5037060;28;20076;-63
2024/03/25 01:22:32;;;;;;;17.10;2.72;;;7.20;99.90;;;;;;5038905;28;20045;-63
2024/03/25 01:24:58;;;;;;;13.13;2.95;;;7.20;99.90;;;;;;5038437;28;20098;-62
2024/03/25 01:27:24;;;;;;;13.55;2.58;;;7.20;99.90;;;;;;5052142;28;20590;-62
2024/03/25 01:29:49;;;;;;;16.73;3.35;;;7.30;99.90;;;;;;5044896;28;20069;-61
2024/03/25 01:32:15;;;;;;;18.83;2.70;;;7.30;99.90;;;;;;5037400;28;20037;-61
2024/03/25 01:34:41;;;;;;;16.27;2.80;;;7.20;99.90;;;;;;5034414;28;20072;-62
2024/03/25 01:37:07;;;;;;;17.17;2.95;;;7.20;99.90;;;;;;5046922;28;20046;-62
2024/03/25 01:39:32;;;;;;;15.93;3.45;;;7.10;99.90;;;;;;5038214;28;20045;-62
2024/03/25 01:41:58;;;;;;;16.27;2.97;;;7.20;99.90;;;;;;5045804;28;20049;-62
2024/03/25 01:44:24;;;;;;;14.82;3.13;;;7.10;99.90;;;;;;5043421;28;20249;-62
2024/03/25 01:46:52;;;;;;;12.52;2.85;;;7.10;99.90;;;;;;5042210;28;20051;-63
2024/03/25 01:49:19;;;;;;;10.27;2.50;;;7.10;99.90;;;;;;5040988;28;20041;-62
2024/03/25 01:51:45;;;;;;;15.73;3.10;;;7.10;99.90;;;;;;5040834;28;20414;-62
2024/03/25 01:54:16;;;;;;;14.15;2.72;;;7.00;99.90;;;;;;5041937;28;20180;-63
2024/03/25 01:56:42;;;;;;;14.90;2.90;;;7.00;99.90;;;;;;5040884;28;20519;-62
2024/03/25 01:59:08;;;;;;;14.07;3.30;;;7.00;99.90;;;;;;5036787;28;20045;-62
2024/03/25 02:01:34;;;;;;;7.97;2.30;;;6.90;99.90;;;;;;5030105;28;20048;-63
2024/03/25 02:04:00;;;;;;;14.68;2.80;;;7.00;99.90;;;;;;5046343;28;20554;-62
2024/03/25 02:06:28;;;;;;;19.17;3.30;;;7.00;99.90;;;;;;5041668;28;20029;-62
2024/03/25 02:08:56;;;;;;;12.27;3.00;;;6.90;99.90;;;;;;5034618;28;20049;-62
2024/03/25 02:11:23;;;;;;;13.60;2.30;;;6.90;99.90;;;;;;5037933;28;20443;-62
2024/03/25 02:13:50;;;;;;;17.23;3.38;;;6.90;99.90;;;;;;5041793;28;20491;-62
2024/03/25 02:16:15;;;;;;;11.32;2.65;;;6.90;99.90;;;;;;5047868;28;20356;-62
2024/03/25 02:18:41;;;;;;;11.85;2.28;;;6.90;99.90;;;;;;5036431;28;20343;-62
2024/03/25 02:21:07;;;;;;;15.18;2.53;;;6.90;99.90;;;;;;5039413;28;20076;-62
2024/03/25 02:23:34;;;;;;;13.93;2.10;;;6.90;99.90;;;;;;5043159;28;20045;-62
2024/03/25 02:26:00;;;;;;;10.82;2.10;;;6.90;99.90;;;;;;5044252;28;20136;-62
2024/03/25 02:28:25;;;;;;;10.68;2.38;;;6.90;99.90;;;;;;5042221;28;20056;-62
2024/03/25 02:30:51;;;;;;;13.15;3.42;;;6.90;99.90;;;;;;5036656;28;20072;-62
2024/03/25 02:33:17;;;;;;;16.33;2.85;;;6.90;99.90;;;;;;5041522;28;20041;-62
2024/03/25 02:35:44;;;;;;;14.07;2.55;;;6.80;99.90;;;;;;5041023;28;20044;-62
2024/03/25 02:38:10;;;;;;;12.82;1.67;;;6.80;99.90;;;;;;5036005;28;20524;-62
2024/03/25 02:40:37;;;;;;;18.80;3.22;;;6.90;99.90;;;;;;5035657;28;20044;-62
2024/03/25 02:43:03;;;;;;;9.82;1.80;;;6.90;99.90;;;;;;5036609;28;20040;-62
2024/03/25 02:45:29;;;;;;;11.35;2.00;;;6.90;99.90;;;;;;5035543;28;20120;-62
2024/03/25 02:47:55;;;;;;;15.40;1.85;;;7.00;99.90;;;;;;5042660;28;20041;-62
2024/03/25 02:50:21;;;;;;;16.45;2.60;;;6.90;99.90;;;;;;5039654;28;20091;-62
2024/03/25 02:52:47;;;;;;;14.43;2.33;;;6.90;99.90;;;;;;5040872;28;20067;-62
2024/03/25 02:55:12;;;;;;;11.68;2.53;;;6.80;99.90;;;;;;5041729;28;20041;-62
2024/03/25 02:57:38;;;;;;;10.63;2.28;;;6.80;99.90;;;;;;5039245;28;20047;-63
2024/03/25 03:00:04;;;;;;;6.45;1.67;;;6.70;99.90;;;;;;5042298;28;20041;-62
2024/03/25 03:02:30;;;;;;;11.23;1.83;;;6.70;99.90;;;;;;5040842;28;20695;-62
2024/03/25 03:04:56;;;;;;;8.68;1.98;;;6.70;99.90;;;;;;5037299;28;20059;-62
2024/03/25 03:07:22;;;;;;;15.98;2.17;;;6.30;99.90;;;;;;5040506;28;20033;-62
2024/03/25 03:09:48;;;;;;;11.48;2.13;;;6.60;99.90;;;;;;5045861;28;20045;-62
2024/03/25 03:12:13;;;;;;;11.90;1.58;;;6.60;99.90;;;;;;5036857;28;20503;-62
2024/03/25 03:14:39;;;;;;;14.05;2.55;;;6.60;99.90;;;;;;5037104;28;20052;-62
2024/03/25 03:17:05;;;;;;;7.78;1.85;;;6.60;99.90;;;;;;5039932;28;20067;-62
2024/03/25 03:19:32;;;;;;;10.43;1.70;;;6.70;99.90;;;;;;5073327;28;20622;-62
2024/03/25 03:21:57;;;;;;;17.67;2.45;;;6.60;99.90;;;;;;5039739;28;20076;-62
2024/03/25 03:24:23;;;;;;;13.38;2.70;;;6.70;99.90;;;;;;5032145;28;20116;-62
2024/03/25 03:26:50;;;;;;;9.07;2.50;;;6.60;99.90;;;;;;5040229;28;20033;-62
2024/03/25 03:29:15;;;;;;;12.80;2.33;;;6.60;99.90;;;;;;5041748;28;20091;-62
2024/03/25 03:31:41;;;;;;;9.95;2.33;;;6.60;99.90;;;;;;5041559;28;20472;-62
2024/03/25 03:34:07;;;;;;;10.30;1.70;;;6.60;99.90;;;;;;5042467;28;20045;-62
2024/03/25 03:36:32;;;;;;;11.57;1.92;;;6.60;99.90;;;;;;5041414;28;20083;-62
2024/03/25 03:38:58;;;;;;;15.70;3.38;;;6.60;99.90;;;;;;5039077;28;20037;-63
2024/03/25 03:41:24;;;;;;;17.73;2.70;;;6.60;99.90;;;;;;5038922;28;20126;-63
2024/03/25 03:43:49;;;;;;;11.90;2.50;;;6.60;99.90;;;;;;5043249;28;20518;-62
2024/03/25 03:46:15;;;;;;;13.63;2.40;;;6.60;99.90;;;;;;5042157;28;20060;-62
2024/03/25 03:48:41;;;;;;;11.00;1.90;;;6.60;99.90;;;;;;5044248;28;20037;-62
2024/03/25 03:51:08;;;;;;;16.00;3.60;;;6.60;99.90;;;;;;5043160;28;20036;-63
2024/03/25 03:53:34;;;;;;;14.82;2.30;;;6.60;99.90;;;;;;5039605;28;20134;-62
2024/03/25 03:56:05;;;;;;;19.80;2.90;;;6.60;99.90;;;;;;5038931;28;20036;-62
2024/03/25 03:58:31;;;;;;;15.45;2.75;;;6.50;99.90;;;;;;5044727;28;20415;-62
2024/03/25 04:00:58;;;;;;;14.65;2.40;;;6.50;99.90;;;;;;5040461;28;20045;-62
2024/03/25 04:03:24;;;;;;;16.02;2.83;;;6.50;99.90;;;;;;5035826;28;20494;-62
2024/03/25 04:05:50;;;;;;;15.68;2.20;;;6.50;99.90;;;;;;5042282;28;20108;-62
2024/03/25 04:08:16;;;;;;;15.55;2.53;;;6.50;99.90;;;;;;5040131;28;20603;-62
2024/03/25 04:10:43;;;;;;;19.13;3.13;;;6.50;99.90;;;;;;5036703;28;20040;-62
2024/03/25 04:13:09;;;;;;;13.73;2.65;;;6.50;99.90;;;;;;5050523;28;20109;-62
2024/03/25 04:15:36;;;;;;;11.32;2.22;;;6.50;99.90;;;;;;5043747;28;20052;-62
2024/03/25 04:18:03;;;;;;;13.57;2.33;;;6.50;99.90;;;;;;5045108;28;20101;-62
2024/03/25 04:20:29;;;;;;;14.20;2.58;;;6.50;99.90;;;;;;5042742;28;20079;-62
2024/03/25 04:22:55;;;;;;;13.30;2.67;;;6.50;99.90;;;;;;5038661;28;20116;-62
2024/03/25 04:25:21;;;;;;;12.05;2.63;;;6.50;99.90;;;;;;5048673;28;20404;-63
2024/03/25 04:27:47;;;;;;;11.43;2.67;;;6.50;99.90;;;;;;5038405;28;20044;-62
2024/03/25 04:30:12;;;;;;;11.70;2.25;;;6.50;99.90;;;;;;5044636;28;20033;-63
2024/03/25 04:32:42;;;;;;;17.70;2.88;;;6.50;99.90;;;;;;5045359;28;20463;-63
2024/03/25 04:35:08;;;;;;;11.50;2.17;;;6.50;99.90;;;;;;5041836;28;20533;-62
2024/03/25 04:37:35;;;;;;;14.10;3.08;;;6.50;99.90;;;;;;5044409;28;20037;-63
2024/03/25 04:40:02;;;;;;;15.20;3.00;;;6.50;99.90;;;;;;5040207;28;20519;-62
2024/03/25 04:42:27;;;;;;;13.35;2.03;;;6.40;99.90;;;;;;5043455;28;20048;-63
2024/03/25 04:44:53;;;;;;;15.88;2.50;;;6.40;99.90;;;;;;5043112;28;20040;-62
2024/03/25 04:47:19;;;;;;;9.85;2.20;;;6.50;99.90;;;;;;5042644;28;20029;-62
2024/03/25 04:49:45;;;;;;;13.77;2.40;;;6.50;99.90;;;;;;5052216;28;20033;-62
2024/03/25 04:52:16;;;;;;;15.27;2.50;;;6.50;99.90;;;;;;5044087;28;20037;-62
2024/03/25 04:54:43;;;;;;;16.80;2.20;;;6.40;99.90;;;;;;5046856;28;20045;-62
2024/03/25 04:57:08;;;;;;;9.43;2.40;;;6.40;99.90;;;;;;5046835;28;20504;-64
2024/03/25 04:59:34;;;;;;;12.38;2.53;;;6.50;99.90;;;;;;5038510;28;20040;-63
2024/03/25 05:02:00;;;;;;;9.30;2.38;;;6.40;99.90;;;;;;5042162;28;20040;-62
2024/03/25 05:04:26;;;;;;;11.32;2.67;;;6.40;99.90;;;;;;5042127;28;20041;-62
2024/03/25 05:06:52;;;;;;;17.65;3.20;;;6.40;99.90;;;;;;5044316;28;20045;-62
2024/03/25 05:09:17;;;;;;;9.40;2.35;;;6.40;99.90;;;;;;5039802;28;20028;-62
2024/03/25 05:11:43;;;;;;;16.90;2.88;;;6.40;99.90;;;;;;5042334;28;20040;-62
2024/03/25 05:14:09;;;;;;;10.95;2.22;;;6.30;99.90;;;;;;5044121;28;20143;-61
2024/03/25 05:16:36;;;;;;;9.77;2.00;;;6.30;99.90;;;;;;5045421;28;20033;-62
2024/03/25 05:19:02;;;;;;;15.05;2.58;;;6.30;99.90;;;;;;5043751;28;20586;-62
2024/03/25 05:21:28;;;;;;;14.70;2.35;;;6.30;99.90;;;;;;5039471;28;20032;-62
2024/03/25 05:23:54;;;;;;;16.33;2.85;;;6.30;99.90;;;;;;5046876;28;20074;-62
2024/03/25 05:26:19;;;;;;;22.75;3.42;;;6.30;99.90;;;;;;5039440;28;20614;-62
2024/03/25 05:28:45;;;;;;;11.10;2.70;;;6.30;99.90;;;;;;5041750;28;20436;-62
2024/03/25 05:31:11;;;;;;;13.13;2.60;;;6.30;99.90;;;;;;5038607;28;20041;-62
2024/03/25 05:33:37;;;;;;;11.80;2.08;;;6.30;99.90;;;;;;5043614;28;20045;-62
2024/03/25 05:36:03;;;;;;;10.70;2.58;;;6.30;99.90;;;;;;5040452;28;20059;-62
2024/03/25 05:38:29;;;;;;;12.52;2.53;;;6.20;99.90;;;;;;5037082;28;20099;-62
2024/03/25 05:40:56;;;;;;;16.98;3.55;;;6.20;99.90;;;;;;5041486;28;20118;-62
2024/03/25 05:43:22;;;;;;;15.18;3.38;;;6.20;99.90;;;;;;5043721;28;20056;-62
2024/03/25 05:45:54;;;;;;;14.73;2.85;;;6.10;99.90;;;;;;5055547;28;20040;-62
2024/03/25 05:48:26;;;;;;;21.17;2.83;;;6.10;99.90;;;;;;5040597;28;20045;-62
2024/03/25 05:51:07;;;;;;;16.10;4.13;;;6.10;99.90;;;;;;5045026;28;20039;-62
2024/03/25 05:53:33;;;;;;;18.25;2.85;;;6.10;99.90;;;;;;5041790;28;20049;-62
2024/03/25 05:55:59;;;;;;;12.80;2.40;;;6.20;99.90;;;;;;5040368;28;20052;-62
2024/03/25 05:58:25;;;;;;;16.27;2.80;;;6.20;99.90;;;;;;5042518;28;20048;-62
2024/03/25 06:00:52;;;;;;;8.90;2.30;;;6.20;99.90;;;;;;5038717;28;20862;-62
2024/03/25 06:03:18;;;;;;;13.90;2.60;;;6.20;99.90;;;;;;5036125;28;20060;-62
2024/03/25 06:05:44;;;;;;;14.73;3.00;;;6.30;99.90;;;;;;5046575;28;20033;-62
2024/03/25 06:08:18;;;;;;;16.10;2.42;;;6.30;99.90;;;;;;5036427;28;20174;-62
2024/03/25 06:10:44;;;;;;;11.52;2.53;;;6.40;99.90;;;;;;5040890;28;20128;-62
2024/03/25 06:13:10;;;;;;;10.43;2.72;;;6.40;99.90;;;;;;5049871;28;20511;-62
2024/03/25 06:15:36;;;;;;;14.68;2.33;;;6.40;99.90;;;;;;5045660;28;20053;-62
2024/03/25 06:18:01;;;;;;;13.98;2.53;;;6.30;99.90;;;;;;5044011;28;20043;-62
2024/03/25 06:20:27;;;;;;;12.85;2.20;;;6.30;99.90;;;;;;5046031;28;20044;-62
2024/03/25 06:22:53;;;;;;;14.10;2.55;;;6.30;99.90;;;;;;5042671;28;20037;-62
2024/03/25 06:25:19;;;;;;;14.05;2.85;;;6.10;99.90;;;;;;5031186;28;20041;-62
2024/03/25 06:27:44;;;;;;;11.18;2.55;;;6.30;99.90;;;;;;5038865;28;20102;-62
2024/03/25 06:35:43;;;;;;;10.25;2.50;;;6.30;99.90;;;;;;5044190;28;20518;-62
2024/03/25 06:38:09;;;;;;;16.63;3.08;;;6.40;99.90;;;;;;5042378;27;20089;-63
2024/03/25 06:40:35;;;;;;;8.02;1.92;;;6.50;99.90;;;;;;5040813;28;20491;-62
2024/03/25 06:43:01;;;;;;;13.50;2.83;;;6.60;99.90;;;;;;5045676;28;20041;-62
2024/03/25 06:45:27;;;;;;;12.63;2.42;;;6.70;99.90;;;;;;5036402;28;20107;-63
2024/03/25 06:47:52;;;;;;;12.98;2.20;;;6.80;99.90;;;;;;5042892;28;20032;-63
2024/03/25 06:50:18;;;;;;;17.98;2.60;;;7.10;99.90;;;;;;5043744;28;20036;-63
2024/03/25 06:52:44;;;;;;;9.30;2.33;;;7.40;99.90;;;;;;5039468;28;20414;-62
2024/03/25 06:55:10;;;;;;;10.95;2.35;;;7.60;99.90;;;;;;5043069;28;20463;-62
2024/03/25 06:57:36;;;;;;;8.60;1.88;;;7.70;99.90;;;;;;5038822;28;20037;-63
2024/03/25 07:00:06;;;;;;;9.85;1.92;;;7.70;99.90;;;;;;5049835;28;20040;-62
2024/03/25 07:02:32;;;;;;;10.63;2.40;;;7.70;99.90;;;;;;5037120;28;20080;-62
2024/03/25 07:04:57;;;;;;;11.35;2.22;;;7.70;99.90;;;;;;5043686;28;20115;-62
2024/03/25 07:07:23;;;;;;;14.50;2.22;;;7.70;99.90;;;;;;5039456;28;20052;-62
2024/03/25 07:09:49;;;;;;;13.70;2.08;;;7.90;99.90;;;;;;5039353;28;20545;-63
2024/03/25 07:12:14;;;;;;;13.43;2.03;;;8.10;99.90;;;;;;5042665;28;20634;-62
2024/03/25 07:14:40;;;;;;;9.13;2.00;;;8.10;99.90;;;;;;5044023;28;20090;-62
2024/03/25 07:17:06;;;;;;;9.90;2.22;;;8.00;99.90;;;;;;5045077;28;20406;-62
2024/03/25 07:19:32;;;;;;;13.85;2.83;;;7.90;99.90;;;;;;5041464;28;20456;-63
2024/03/25 07:21:57;;;;;;;12.00;1.95;;;8.00;99.90;;;;;;5043515;28;20040;-62
2024/03/25 07:24:23;;;;;;;12.40;2.25;;;7.80;99.90;;;;;;5048398;28;20144;-63
2024/03/25 07:26:50;;;;;;;11.98;2.35;;;8.00;99.90;;;;;;5039171;28;20516;-63
2024/03/25 07:29:16;;;;;;;15.55;2.80;;;8.10;99.90;;;;;;5045558;28;20051;-62
2024/03/25 07:31:41;;;;;;;14.18;2.53;;;8.50;99.90;;;;;;5038765;28;20032;-62
2024/03/25 07:34:11;;;;;;;14.38;2.35;;;8.80;99.90;;;;;;5037679;28;20059;-63
2024/03/25 07:36:38;;;;;;;9.20;2.08;;;9.10;99.90;;;;;;5042383;28;20817;-62
2024/03/25 07:39:10;;;;;;;10.57;1.75;;;9.10;99.90;;;;;;5040317;28;20037;-62
2024/03/25 07:41:36;;;;;;;14.82;2.15;;;9.10;99.90;;;;;;5041298;28;20036;-61
2024/03/25 07:44:02;;;;;;;7.25;2.30;;;9.10;99.90;;;;;;5045137;28;20032;-62
2024/03/25 07:46:28;;;;;;;9.80;2.03;;;9.10;99.90;;;;;;5042168;28;20712;-62
2024/03/25 07:48:54;;;;;;;14.55;1.73;;;9.10;99.90;;;;;;5047071;28;20190;-62
2024/03/25 07:51:20;;;;;;;8.75;2.40;;;9.00;99.90;;;;;;5036537;28;20037;-62
2024/03/25 07:53:48;;;;;;;;;;;8.90;99.90;;;;;;5041530;28;20040;-62
2024/03/25 07:56:17;;;;;;;6.50;1.55;;;8.90;99.90;;;;;;5040456;28;19920;-62
2024/03/25 07:58:43;;;;;;;8.55;1.58;;;8.80;99.90;;;;;;5042801;28;20055;-63
2024/03/25 08:01:09;;;;;;;9.02;1.90;;;8.80;99.90;;;;;;5042012;28;20370;-63
2024/03/25 08:03:34;;;;;;;12.63;1.77;;;8.80;99.90;;;;;;5038519;28;20401;-63
2024/03/25 08:06:00;;;;;;;7.85;1.88;;;9.10;99.90;;;;;;5038234;28;20098;-63
2024/03/25 08:08:26;;;;;;;6.43;1.25;;;9.20;99.90;;;;;;5043063;28;20578;-62
2024/03/25 08:10:55;;;;;;;7.10;1.42;;;9.30;99.90;;;;;;5043624;28;20056;-62
2024/03/25 08:13:21;;;;;;;6.80;1.48;;;9.80;99.90;;;;;;5040165;28;20049;-63
2024/03/25 08:15:47;;;;;;;8.07;1.27;;;10.30;99.90;;;;;;5042338;28;20371;-63
2024/03/25 08:18:13;;;;;;;5.97;1.70;;;10.40;99.90;;;;;;5039669;28;20488;-62
2024/03/25 08:20:38;;;;;;;9.27;2.13;;;11.00;99.90;;;;;;5033792;28;20037;-62
2024/03/25 08:23:05;;;;;;;9.52;1.55;;;11.30;99.90;;;;;;5038039;28;20103;-63
2024/03/25 08:25:31;;;;;;;7.60;1.95;;;11.80;99.90;;;;;;5038848;28;20044;-63
2024/03/25 08:27:58;;;;;;;6.10;1.50;;;12.10;99.90;;;;;;5039039;28;20177;-63
2024/03/25 08:30:24;;;;;;;7.70;1.30;;;12.40;99.90;;;;;;5039020;28;20037;-63
2024/03/25 08:32:50;;;;;;;4.30;1.60;;;12.50;99.90;;;;;;5036856;28;20403;-62
2024/03/25 08:35:16;;;;;;;6.18;1.33;;;13.20;99.90;;;;;;5037425;28;20036;-63
2024/03/25 08:37:41;;;;;;;7.90;1.55;;;12.90;99.90;;;;;;5039450;28;20041;-62
2024/03/25 08:40:09;;;;;;;9.20;1.90;;;13.20;99.90;;;;;;5035196;28;20474;-62
2024/03/25 08:42:34;;;;;;;7.85;1.67;;;13.10;99.90;;;;;;5033102;28;20056;-63
2024/03/25 08:45:01;;;;;;;9.38;1.70;;;13.40;99.90;;;;;;5041012;28;20504;-63
2024/03/25 08:47:26;;;;;;;8.00;1.60;;;13.40;99.90;;;;;;5036738;28;20044;-62
2024/03/25 08:49:52;;;;;;;10.10;1.85;;;13.40;99.90;;;;;;5026509;28;20034;-63
2024/03/25 08:52:18;;;;;;;8.98;1.80;;;13.00;99.90;;;;;;5040621;28;20557;-63
2024/03/25 08:54:43;;;;;;;7.47;1.77;;;12.70;99.90;;;;;;5033415;28;20124;-63
2024/03/25 08:57:09;;;;;;;7.90;1.67;;;12.40;99.90;;;;;;5044572;28;20045;-62
2024/03/25 08:59:35;;;;;;;10.65;1.98;;;12.00;99.90;;;;;;5042428;28;20119;-63
2024/03/25 09:02:01;;;;;;;6.13;2.08;;;11.80;99.90;;;;;;5045353;28;20049;-62
2024/03/25 09:04:27;;;;;;;16.38;2.00;;;11.60;99.90;;;;;;5048694;28;20136;-62
2024/03/25 09:06:53;;;;;;;6.68;1.58;;;11.40;99.90;;;;;;5038870;28;20561;-62
2024/03/25 09:12:03;;;;;;;7.95;1.80;;;11.00;99.90;;;;;;5044970;28;20040;-63
2024/03/25 09:14:29;;;;;;;7.32;1.73;;;11.40;99.90;;;;;;5044480;28;20820;-62
2024/03/25 09:16:54;;;;;;;7.60;1.75;;;11.70;99.90;;;;;;5040345;28;20128;-63
2024/03/25 09:19:20;;;;;;;6.28;2.10;;;12.20;99.90;;;;;;5040770;28;20330;-63
2024/03/25 09:21:46;;;;;;;6.45;1.23;;;12.40;99.90;;;;;;5040078;28;20045;-62
2024/03/25 09:24:11;;;;;;;3.22;1.15;;;12.80;99.90;;;;;;5047172;28;20044;-63
2024/03/25 09:26:37;;;;;;;7.95;1.50;;;13.10;99.90;;;;;;5038178;28;20397;-62
2024/03/25 09:29:03;;;;;;;8.57;1.85;;;13.10;99.90;;;;;;5043123;28;20395;-62
2024/03/25 09:31:28;;;;;;;6.40;1.92;;;13.50;99.90;;;;;;5041075;28;20584;-62
2024/03/25 09:33:54;;;;;;;5.95;1.30;;;13.50;99.90;;;;;;5042487;28;20041;-62
2024/03/25 09:36:20;;;;;;;6.00;1.17;;;13.90;99.90;;;;;;5036867;28;20134;-62
2024/03/25 09:38:46;;;;;;;5.85;1.15;;;13.90;99.90;;;;;;5044529;28;20035;-62
2024/03/25 09:41:12;;;;;;;2.70;0.98;;;14.20;99.90;;;;;;5047712;28;20472;-62
2024/03/25 09:43:49;;;;;;;6.63;1.58;;;14.20;99.90;;;;;;5043406;28;20458;-62
2024/03/25 09:46:16;;;;;;;6.80;1.30;;;13.40;99.90;;;;;;5041200;28;20263;-62
2024/03/25 09:48:42;;;;;;;7.18;1.10;;;13.20;99.90;;;;;;5042437;28;20464;-62
2024/03/25 09:51:09;;;;;;;9.02;1.48;;;13.40;99.90;;;;;;5037858;28;20079;-62
2024/03/25 09:53:35;;;;;;;10.60;1.38;;;13.50;99.90;;;;;;5038527;28;20037;-62
2024/03/25 09:56:02;;;;;;;5.47;0.88;;;13.50;99.90;;;;;;5040220;28;20052;-62
2024/03/25 09:58:28;;;;;;;6.80;1.50;;;13.20;99.90;;;;;;5042111;28;20053;-63
2024/03/25 10:00:55;;;;;;;9.63;1.45;;;13.40;99.90;;;;;;5041019;28;20084;-63
2024/03/25 10:03:21;;;;;;;9.70;1.70;;;13.50;99.90;;;;;;5041273;28;20057;-63
2024/03/25 10:05:47;;;;;;;8.13;1.88;;;13.50;99.90;;;;;;5039837;28;20041;-62
2024/03/25 10:08:13;;;;;;;4.53;1.15;;;13.40;99.90;;;;;;5041530;28;20379;-62
2024/03/25 10:10:39;;;;;;;7.70;1.75;;;13.30;99.90;;;;;;5039910;28;20033;-62
2024/03/25 10:13:05;;;;;;;6.70;1.48;;;13.40;99.90;;;;;;5046215;28;20044;-62
2024/03/25 10:15:31;;;;;;;7.22;2.05;;;13.20;99.90;;;;;;5041593;28;20044;-62
2024/03/25 10:17:57;;;;;;;6.88;1.60;;;13.20;99.90;;;;;;5041463;28;20203;-62
2024/03/25 10:20:25;;;;;;;8.38;1.30;;;13.00;99.90;;;;;;5045265;28;20273;-62
2024/03/25 10:22:51;;;;;;;5.53;1.67;;;13.00;99.90;;;;;;5059383;28;20550;-62
2024/03/25 10:25:25;;;;;;;7.15;1.77;;;12.90;99.90;;;;;;5046440;28;20045;-62
2024/03/25 10:28:01;;;;;;;9.95;2.10;;;12.80;99.90;;;;;;5039275;28;21068;-62
2024/03/25 10:30:27;;;;;;;9.80;1.63;;;12.30;99.90;;;;;;5036554;28;20124;-61
2024/03/25 10:33:01;;;;;;;9.27;1.75;;;11.70;99.90;;;;;;5035343;28;20044;-63
2024/03/25 10:35:28;;;;;;;8.32;1.50;;;11.40;99.90;;;;;;5041922;28;20059;-62
2024/03/25 10:37:56;;;;;;;8.77;2.08;;;11.20;99.90;;;;;;5048432;28;20067;-63
2024/03/25 10:40:28;;;;;;;16.85;3.05;;;11.00;99.90;;;;;;5043303;28;20069;-63
2024/03/25 10:43:13;;;;;;;8.68;2.47;;;10.90;99.90;;;;;;5049847;28;20044;-64
2024/03/25 10:45:44;;;;;;;10.40;1.67;;;10.70;99.90;;;;;;5038907;28;20587;-63
2024/03/25 10:48:17;;;;;;;12.23;1.80;;;10.60;99.90;;;;;;5040658;28;20550;-63
2024/03/25 10:50:44;;;;;;;11.70;2.60;;;10.50;99.90;;;;;;5034699;28;20037;-62
2024/03/25 10:53:10;;;;;;;9.20;2.10;;;10.60;99.90;;;;;;5046875;28;20059;-64
2024/03/25 10:55:37;;;;;;;9.80;2.03;;;10.60;99.90;;;;;;5049782;28;20040;-63
2024/03/25 10:58:07;;;;;;;8.05;2.10;;;10.60;99.90;;;;;;5044532;28;20084;-63
2024/03/25 11:00:36;;;;;;;8.15;1.40;;;10.90;99.90;;;;;;5040738;28;20098;-63
2024/03/25 11:03:02;;;;;;;8.45;2.60;;;11.10;99.90;;;;;;5043869;28;20128;-62
2024/03/25 11:05:29;;;;;;;9.23;1.95;;;11.40;99.90;;;;;;5041953;28;20028;-62
2024/03/25 11:07:55;;;;;;;8.65;1.83;;;11.40;99.90;;;;;;5045665;28;20090;-62
2024/03/25 11:10:29;;;;;;;13.43;2.17;;;11.70;99.90;;;;;;5053076;28;20040;-61
2024/03/25 11:12:55;;;;;;;8.95;1.88;;;11.90;99.90;;;;;;5036876;28;20128;-63
2024/03/25 11:15:21;;;;;;;10.38;1.90;;;12.30;99.90;;;;;;5038164;28;20040;-62
2024/03/25 11:17:51;;;;;;;10.23;2.58;;;12.50;99.90;;;;;;5041671;28;20087;-62
2024/03/25 11:20:17;;;;;;;12.43;3.22;;;12.60;99.90;;;;;;5045867;28;20063;-63
2024/03/25 11:22:49;;;;;;;8.40;2.13;;;12.60;99.90;;;;;;5037613;28;20051;-63
2024/03/25 11:25:16;;;;;;;8.57;1.92;;;13.00;99.90;;;;;;5049701;28;20056;-63
2024/03/25 11:27:44;;;;;;;10.55;2.33;;;13.20;99.90;;;;;;5039688;28;20043;-60
2024/03/25 11:30:11;;;;;;;12.73;2.53;;;13.50;99.90;;;;;;5040902;28;20087;-63
2024/03/25 11:32:53;;;;;;;17.83;2.85;;;13.60;99.90;;;;;;5034210;28;20292;-63
2024/03/25 11:35:19;;;;;;;11.93;2.40;;;13.60;99.90;;;;;;5035869;28;20076;-60
2024/03/25 11:37:46;;;;;;;9.52;2.17;;;13.60;99.90;;;;;;5038496;28;20520;-63
2024/03/25 11:40:14;;;;;;;10.90;2.03;;;13.80;99.90;;;;;;5040115;28;20491;-60
2024/03/25 11:42:43;;;;;;;9.53;1.93;;;14.00;99.90;;;;;;5040547;28;20079;-61
2024/03/25 11:45:20;;;;;;;9.25;2.03;;;13.80;99.90;;;;;;5043934;28;20571;-61
2024/03/25 11:47:47;;;;;;;12.07;2.50;;;14.00;99.90;;;;;;5040272;28;20040;-61
2024/03/25 11:50:15;;;;;;;14.00;2.85;;;14.00;99.90;;;;;;5039920;28;20072;-61
2024/03/25 11:52:41;;;;;;;9.45;2.22;;;14.00;99.90;;;;;;5039702;28;20044;-61
2024/03/25 11:55:14;;;;;;;11.88;2.20;;;14.00;99.90;;;;;;5040856;28;20447;-61
2024/03/25 11:57:40;;;;;;;9.10;2.22;;;14.00;99.90;;;;;;5042474;28;20041;-61
2024/03/25 12:00:10;;;;;;;12.23;2.65;;;14.10;99.90;;;;;;5046184;28;20113;-61
2024/03/25 12:02:37;;;;;;;8.98;1.70;;;14.10;99.90;;;;;;5039185;28;20124;-61
2024/03/25 12:05:06;;;;;;;11.18;2.17;;;14.00;99.90;;;;;;5049516;28;20322;-62
2024/03/25 12:07:34;;;;;;;10.15;1.63;;;13.70;99.90;;;;;;5043605;28;20048;-62
2024/03/25 12:12:45;;;;;;;10.02;2.20;;;13.30;99.90;;;;;;5037483;28;20531;-62
2024/03/25 12:15:11;;;;;;;8.20;1.33;;;13.30;99.90;;;;;;5040975;28;20041;-61
2024/03/25 12:17:37;;;;;;;8.07;2.15;;;13.20;99.90;;;;;;5037096;28;20033;-61
2024/03/25 12:20:04;;;;;;;11.10;1.98;;;13.10;99.90;;;;;;5041086;28;20036;-61
2024/03/25 12:22:32;;;;;;;10.70;2.05;;;13.00;99.90;;;;;;5037001;28;20056;-61
2024/03/25 12:24:59;;;;;;;9.10;1.90;;;12.80;99.90;;;;;;5049464;28;20199;-61
2024/03/25 12:27:26;;;;;;;11.30;2.50;;;12.50;99.90;;;;;;5039345;28;20045;-62
2024/03/25 12:30:19;;;;;;;10.40;1.83;;;12.30;99.90;;;;;;5045138;28;20282;-62
2024/03/25 12:32:45;;;;;;;8.55;2.08;;;12.30;99.90;;;;;;5045679;28;20056;-61
2024/03/25 12:35:18;;;;;;;16.98;2.60;;;12.40;99.90;;;;;;5049098;28;20055;-62
2024/03/25 12:37:49;;;;;;;7.75;1.90;;;12.80;99.90;;;;;;5051570;28;20094;-62
2024/03/25 12:40:31;;;;;;;10.55;2.35;;;13.00;99.90;;;;;;5030994;28;20048;-61
2024/03/25 12:42:57;;;;;;;11.02;2.88;;;13.20;99.90;;;;;;5040770;28;20044;-62
2024/03/25 12:45:23;;;;;;;9.48;2.08;;;13.20;99.90;;;;;;5044662;28;20041;-62
2024/03/25 12:47:51;;;;;;;8.75;2.03;;;13.40;99.90;;;;;;5044667;28;20467;-62
2024/03/25 12:50:17;;;;;;;11.05;2.55;;;13.60;99.90;;;;;;5044392;28;20053;-61
2024/03/25 12:52:42;;;;;;;13.10;2.42;;;14.00;99.90;;;;;;5043035;28;20045;-61
2024/03/25 12:55:09;;;;;;;10.63;2.22;;;13.80;99.90;;;;;;5050128;28;20079;-62
2024/03/25 12:57:35;;;;;;;9.98;2.50;;;13.90;99.90;;;;;;5041098;28;20068;-62